createdAt,value
2022-10-05T00:01:25.518Z,88.26
2022-10-05T00:03:58.375Z,88.65
2022-10-05T00:06:29.703Z,88.71
2022-10-05T00:08:59.694Z,88.61
2022-10-05T00:11:28.237Z,88.76
2022-10-05T00:13:57.635Z,88.33
2022-10-05T00:16:25.961Z,88.18
2022-10-05T00:18:54.437Z,88.18
2022-10-05T00:21:24.762Z,87.79
2022-10-05T00:23:56.326Z,87.82
2022-10-05T00:26:26.699Z,87.69
2022-10-05T00:28:55.559Z,87.92
2022-10-05T00:31:29.035Z,87.72
2022-10-05T00:33:58.646Z,87.39
2022-10-05T00:36:27.142Z,87.26
2022-10-05T00:38:55.801Z,87.54
2022-10-05T00:41:30.537Z,87.47
2022-10-05T00:44:22.989Z,87.66
2022-10-05T00:46:56.990Z,87.34
2022-10-05T00:49:47.511Z,87.21
2022-10-05T00:52:25.942Z,87.38
2022-10-05T00:55:03.073Z,87.43
2022-10-05T00:57:42.416Z,87.44
2022-10-05T01:00:15.450Z,87.53
2022-10-05T01:02:52.326Z,87.62
2022-10-05T01:05:39.497Z,87.78
2022-10-05T01:08:19.520Z,87.48
2022-10-05T01:10:55.646Z,87.43
2022-10-05T01:13:33.477Z,87.86
2022-10-05T01:16:10.369Z,88.13
2022-10-05T01:18:47.413Z,87.71
2022-10-05T01:21:20.004Z,87.90
2022-10-05T01:24:22.013Z,87.58
2022-10-05T01:27:07.301Z,87.69
2022-10-05T01:29:40.781Z,87.82
2022-10-05T01:32:16.927Z,88.00
2022-10-05T01:34:52.984Z,88.19
2022-10-05T01:37:29.687Z,87.88
2022-10-05T01:40:05.010Z,87.64
2022-10-05T01:42:46.046Z,87.57
2022-10-05T01:45:25.010Z,87.40
2022-10-05T01:48:05.850Z,87.13
2022-10-05T01:50:45.258Z,87.19
2022-10-05T01:53:27.375Z,87.43
2022-10-05T01:56:05.563Z,87.44
2022-10-05T01:58:43.725Z,87.27
2022-10-05T02:01:21.933Z,86.72
2022-10-05T02:03:58.832Z,86.56
2022-10-05T02:06:32.081Z,86.48
2022-10-05T02:09:08.322Z,86.28
2022-10-05T02:11:39.386Z,86.14
2022-10-05T02:14:10.975Z,86.02
2022-10-05T02:16:42.143Z,85.77
2022-10-05T02:19:17.866Z,85.84
2022-10-05T02:21:50.881Z,85.69
2022-10-05T02:24:23.760Z,85.57
2022-10-05T02:26:55.226Z,85.49
2022-10-05T02:29:30.251Z,85.37
2022-10-05T02:32:03.469Z,86.14
2022-10-05T02:34:38.091Z,86.35
2022-10-05T02:37:21.552Z,86.05
2022-10-05T02:40:01.263Z,85.78
2022-10-05T02:42:36.739Z,86.11
2022-10-05T02:45:14.928Z,86.05
2022-10-05T02:47:52.373Z,86.38
2022-10-05T02:50:30.044Z,86.51
2022-10-05T02:53:08.112Z,86.00
2022-10-05T02:55:42.926Z,85.74
2022-10-05T02:58:15.783Z,86.16
2022-10-05T03:00:46.162Z,86.33
2022-10-05T03:03:22.414Z,86.23
2022-10-05T03:05:59.395Z,85.96
2022-10-05T03:08:34.111Z,86.15
2022-10-05T03:11:10.679Z,86.28
2022-10-05T03:13:47.713Z,86.52
2022-10-05T03:16:25.825Z,86.38
2022-10-05T03:19:09.103Z,86.32
2022-10-05T03:21:52.435Z,86.40
2022-10-05T03:24:37.662Z,86.12
2022-10-05T03:27:16.607Z,85.76
2022-10-05T03:29:52.179Z,86.10
2022-10-05T03:32:28.904Z,86.04
2022-10-05T03:35:06.613Z,85.65
2022-10-05T03:37:46.596Z,85.88
2022-10-05T03:40:26.597Z,86.64
2022-10-05T03:43:06.623Z,86.48
2022-10-05T03:45:41.692Z,85.92
2022-10-05T03:48:14.588Z,85.72
2022-10-05T03:50:51.468Z,85.82
2022-10-05T03:53:22.862Z,85.92
2022-10-05T03:55:59.380Z,86.16
2022-10-05T03:58:34.219Z,86.54
2022-10-05T04:01:10.126Z,86.67
2022-10-05T04:03:43.962Z,86.06
2022-10-05T04:06:16.381Z,85.89
2022-10-05T04:08:52.068Z,85.49
2022-10-05T04:11:26.661Z,85.27
2022-10-05T04:14:00.605Z,85.16
2022-10-05T04:16:34.629Z,85.46
2022-10-05T04:19:10.369Z,85.45
2022-10-05T04:21:49.118Z,85.27
2022-10-05T04:24:23.240Z,85.30
2022-10-05T04:26:57.484Z,85.52
2022-10-05T04:29:33.358Z,85.70
2022-10-05T04:32:13.953Z,85.93
2022-10-05T04:34:56.314Z,85.98
2022-10-05T04:37:34.376Z,85.99
2022-10-05T04:40:15.182Z,86.09
2022-10-05T04:42:55.440Z,86.14
2022-10-05T04:45:32.388Z,86.15
2022-10-05T04:48:16.412Z,86.24
2022-10-05T04:51:04.700Z,86.17
2022-10-05T04:53:40.303Z,86.05
2022-10-05T04:56:15.319Z,86.23
2022-10-05T04:59:00.651Z,86.26
2022-10-05T05:01:45.957Z,86.14
2022-10-05T05:04:29.640Z,86.33
2022-10-05T05:07:03.401Z,86.16
2022-10-05T05:09:56.671Z,86.28
2022-10-05T05:12:36.682Z,86.41
2022-10-05T05:15:25.946Z,86.43
2022-10-05T05:18:14.580Z,86.00
2022-10-05T05:20:55.862Z,85.72
2022-10-05T05:23:34.461Z,85.65
2022-10-05T05:26:11.213Z,85.78
2022-10-05T05:28:47.604Z,85.52
2022-10-05T05:31:26.520Z,85.33
2022-10-05T05:34:05.218Z,85.16
2022-10-05T05:36:52.283Z,85.00
2022-10-05T05:39:28.117Z,84.94
2022-10-05T05:42:01.776Z,84.64
2022-10-05T05:44:38.760Z,84.59
2022-10-05T05:47:19.380Z,84.63
2022-10-05T05:50:07.713Z,84.44
2022-10-05T05:52:42.643Z,84.11
2022-10-05T05:55:19.534Z,84.23
2022-10-05T05:57:55.744Z,84.09
2022-10-05T06:00:28.581Z,83.92
2022-10-05T06:03:06.773Z,83.53
2022-10-05T06:05:40.980Z,83.37
2022-10-05T06:08:18.077Z,83.55
2022-10-05T06:10:52.847Z,83.44
2022-10-05T06:13:24.302Z,83.12
2022-10-05T06:15:58.384Z,82.98
2022-10-05T06:18:28.677Z,83.17
2022-10-05T06:21:03.323Z,83.00
2022-10-05T06:23:40.306Z,82.68
2022-10-05T06:26:20.922Z,82.35
2022-10-05T06:28:56.319Z,82.11
2022-10-05T06:31:44.105Z,82.04
2022-10-05T06:34:25.478Z,81.38
2022-10-05T06:37:00.211Z,81.06
2022-10-05T06:39:56.383Z,80.76
2022-10-05T06:42:39.885Z,80.70
2022-10-05T06:45:55.754Z,80.57
2022-10-05T06:48:50.575Z,80.33
2022-10-05T06:51:59.520Z,79.85
2022-10-05T06:54:44.373Z,79.73
2022-10-05T06:57:32.525Z,79.52
2022-10-05T07:00:04.069Z,79.20
2022-10-05T07:02:42.536Z,78.93
2022-10-05T07:05:34.272Z,78.73
2022-10-05T07:08:09.518Z,78.14
2022-10-05T07:10:50.478Z,77.83
2022-10-05T07:13:38.531Z,77.49
2022-10-05T07:16:19.356Z,77.14
2022-10-05T07:19:03.278Z,76.48
2022-10-05T07:21:39.880Z,76.11
2022-10-05T07:24:23.444Z,75.88
2022-10-05T07:27:01.766Z,75.50
2022-10-05T07:29:37.785Z,75.17
2022-10-05T07:32:19.058Z,74.98
2022-10-05T07:34:54.541Z,74.82
2022-10-05T07:37:50.755Z,74.53
2022-10-05T07:40:27.110Z,74.52
2022-10-05T07:43:06.923Z,74.07
2022-10-05T07:45:45.333Z,73.99
2022-10-05T07:48:18.854Z,74.17
2022-10-05T07:50:56.846Z,74.16
2022-10-05T07:53:31.119Z,73.89
2022-10-05T07:56:06.374Z,73.48
2022-10-05T07:58:42.795Z,73.57
2022-10-05T08:01:18.463Z,73.57
2022-10-05T08:03:53.578Z,73.47
2022-10-05T08:06:38.991Z,73.42
2022-10-05T08:09:22.760Z,73.25
2022-10-05T08:12:01.384Z,73.20
2022-10-05T08:14:40.415Z,73.18
2022-10-05T08:17:21.604Z,72.84
2022-10-05T08:20:02.750Z,72.25
2022-10-05T08:22:34.795Z,72.64
2022-10-05T08:25:09.594Z,72.37
2022-10-05T08:27:47.909Z,71.68
2022-10-05T08:30:17.113Z,71.90
2022-10-05T08:32:51.235Z,70.89
2022-10-05T08:35:30.711Z,71.18
2022-10-05T08:37:59.031Z,71.26
2022-10-05T08:40:49.129Z,70.83
2022-10-05T08:43:43.569Z,70.64
2022-10-05T08:46:44.470Z,70.73
2022-10-05T08:49:53.152Z,70.36
2022-10-05T08:52:28.811Z,70.15
2022-10-05T08:55:30.934Z,69.92
2022-10-05T08:58:32.194Z,69.84
2022-10-05T09:01:10.342Z,69.48
2022-10-05T09:04:29.680Z,68.51
2022-10-05T09:07:20.641Z,67.59
2022-10-05T09:10:30.538Z,67.56
2022-10-05T09:13:19.281Z,67.43
2022-10-05T09:16:05.947Z,66.94
2022-10-05T09:19:17.569Z,66.13
2022-10-05T09:21:58.085Z,65.63
2022-10-05T09:24:50.975Z,66.02
2022-10-05T09:27:28.654Z,66.13
2022-10-05T09:30:19.934Z,65.85
2022-10-05T09:33:13.197Z,65.31
2022-10-05T09:35:55.370Z,65.46
2022-10-05T09:38:40.623Z,65.26
2022-10-05T09:41:47.056Z,64.93
2022-10-05T09:44:50.998Z,64.47
2022-10-05T09:47:59.197Z,63.91
2022-10-05T09:51:11.568Z,63.24
2022-10-05T09:54:03.919Z,63.09
2022-10-05T09:57:03.478Z,63.40
2022-10-05T10:00:05.157Z,63.52
2022-10-05T10:03:09.102Z,63.26
2022-10-05T10:05:56.800Z,62.52
2022-10-05T10:08:38.412Z,61.84
2022-10-05T10:11:20.888Z,61.52
2022-10-05T10:14:17.780Z,61.14
2022-10-05T10:17:11.739Z,60.69
2022-10-05T10:20:11.736Z,60.67
2022-10-05T10:23:04.987Z,61.00
2022-10-05T10:25:52.518Z,61.26
2022-10-05T10:28:39.196Z,60.86
2022-10-05T10:31:45.390Z,59.41
2022-10-05T10:34:50.921Z,58.90
2022-10-05T10:37:39.209Z,58.84
2022-10-05T10:40:26.517Z,59.13
2022-10-05T10:43:25.895Z,59.28
2022-10-05T10:46:07.721Z,59.38
2022-10-05T10:48:52.591Z,59.00
2022-10-05T10:51:40.611Z,58.71
2022-10-05T10:54:42.661Z,58.73
2022-10-05T10:57:14.436Z,58.20
2022-10-05T11:00:05.498Z,57.68
2022-10-05T11:02:49.842Z,57.04
2022-10-05T11:05:38.569Z,57.36
2022-10-05T11:08:33.533Z,57.08
2022-10-05T11:11:43.805Z,57.25
2022-10-05T11:14:49.315Z,57.33
2022-10-05T11:17:39.535Z,57.01
2022-10-05T11:20:40.690Z,56.61
2022-10-05T11:23:29.519Z,56.48
2022-10-05T11:26:18.814Z,56.50
2022-10-05T11:29:19.340Z,56.52
2022-10-05T11:32:20.812Z,56.44
2022-10-05T11:35:31.711Z,57.00
2022-10-05T11:38:18.749Z,57.30
2022-10-05T11:41:08.754Z,57.05
2022-10-05T11:44:07.620Z,57.43
2022-10-05T11:46:48.373Z,57.75
2022-10-05T11:49:27.328Z,58.05
2022-10-05T11:52:08.665Z,57.88
2022-10-05T11:55:10.499Z,57.27
2022-10-05T11:57:47.740Z,57.10
2022-10-05T12:00:20.593Z,56.87
2022-10-05T12:03:21.473Z,56.49
2022-10-05T12:06:13.247Z,56.54
2022-10-05T12:08:55.845Z,56.89
2022-10-05T12:11:57.659Z,56.85
2022-10-05T12:14:40.258Z,56.85
2022-10-05T12:17:19.095Z,56.96
2022-10-05T12:19:53.866Z,57.20
2022-10-05T12:22:27.468Z,56.75
2022-10-05T12:25:05.466Z,56.68
2022-10-05T12:27:39.141Z,56.91
2022-10-05T12:30:14.985Z,56.73
2022-10-05T12:33:00.909Z,56.48
2022-10-05T12:35:50.444Z,56.18
2022-10-05T12:38:27.702Z,56.70
2022-10-05T12:41:08.077Z,56.76
2022-10-05T12:43:46.625Z,56.83
2022-10-05T12:46:29.076Z,57.03
2022-10-05T12:49:12.916Z,57.24
2022-10-05T12:51:44.827Z,57.38
2022-10-05T12:54:21.882Z,57.63
2022-10-05T12:56:55.461Z,57.74
2022-10-05T12:59:37.989Z,58.48
2022-10-05T13:02:18.717Z,59.08
2022-10-05T13:04:52.878Z,59.23
2022-10-05T13:07:48.020Z,59.44
2022-10-05T13:10:30.890Z,59.76
2022-10-05T13:13:05.464Z,59.84
2022-10-05T13:15:42.026Z,60.16
2022-10-05T13:18:16.559Z,60.27
2022-10-05T13:20:51.939Z,60.22
2022-10-05T13:23:30.620Z,60.34
2022-10-05T13:26:07.151Z,60.51
2022-10-05T13:28:42.145Z,60.58
2022-10-05T13:31:18.056Z,60.83
2022-10-05T13:34:02.268Z,60.83
2022-10-05T13:36:41.887Z,60.87
2022-10-05T13:39:22.571Z,60.96
2022-10-05T13:42:00.190Z,61.37
2022-10-05T13:44:37.139Z,61.25
2022-10-05T13:47:13.080Z,60.99
2022-10-05T13:49:49.125Z,61.11
2022-10-05T13:52:28.922Z,61.55
2022-10-05T13:55:06.566Z,61.76
2022-10-05T13:57:52.637Z,61.76
2022-10-05T14:00:26.498Z,61.94
2022-10-05T14:02:56.914Z,62.09
2022-10-05T14:05:27.060Z,62.43
2022-10-05T14:07:58.145Z,62.65
2022-10-05T14:10:34.005Z,62.63
2022-10-05T14:13:16.370Z,62.68
2022-10-05T14:15:58.865Z,62.74
2022-10-05T14:18:30.133Z,62.67
2022-10-05T14:21:14.659Z,62.80
2022-10-05T14:23:43.419Z,62.78
2022-10-05T14:26:34.291Z,62.71
2022-10-05T14:29:17.043Z,62.88
2022-10-05T14:31:53.124Z,62.83
2022-10-05T14:34:30.338Z,62.67
2022-10-05T14:37:02.682Z,62.92
2022-10-05T14:39:40.271Z,62.62
2022-10-05T14:42:16.427Z,62.61
2022-10-05T14:44:45.820Z,62.72
2022-10-05T14:47:22.516Z,62.26
2022-10-05T14:50:10.030Z,62.17
2022-10-05T14:52:41.769Z,62.01
2022-10-05T14:55:23.469Z,62.17
2022-10-05T14:58:05.513Z,62.20
2022-10-05T15:00:39.891Z,61.94
2022-10-05T15:03:26.613Z,61.78
2022-10-05T15:05:59.347Z,61.79
2022-10-05T15:08:47.407Z,61.82
2022-10-05T15:11:29.576Z,61.76
2022-10-05T15:14:00.100Z,61.70
2022-10-05T15:16:33.035Z,61.64
2022-10-05T15:19:13.448Z,61.64
2022-10-05T15:22:00.432Z,61.61
2022-10-05T15:24:42.696Z,61.69
2022-10-05T15:27:25.621Z,61.49
2022-10-05T15:30:03.292Z,61.73
2022-10-05T15:32:43.231Z,61.97
2022-10-05T15:35:42.835Z,62.18
2022-10-05T15:38:20.446Z,62.26
2022-10-05T15:40:58.242Z,62.54
2022-10-05T15:43:35.429Z,62.57
2022-10-05T15:46:13.183Z,62.67
2022-10-05T15:48:52.400Z,63.17
2022-10-05T15:51:31.773Z,63.16
2022-10-05T15:54:24.287Z,63.31
2022-10-05T15:56:59.094Z,63.50
2022-10-05T15:59:33.933Z,63.74
2022-10-05T16:02:10.282Z,63.85
2022-10-05T16:04:48.349Z,64.09
2022-10-05T16:07:42.741Z,64.39
2022-10-05T16:10:16.010Z,64.60
2022-10-05T16:12:55.938Z,64.57
2022-10-05T16:15:33.102Z,64.92
2022-10-05T16:18:30.664Z,65.03
2022-10-05T16:21:10.583Z,65.19
2022-10-05T16:23:52.191Z,65.25
2022-10-05T16:26:34.282Z,65.45
2022-10-05T16:29:08.929Z,65.62
2022-10-05T16:31:55.270Z,65.70
2022-10-05T16:34:38.993Z,65.96
2022-10-05T16:37:14.137Z,66.12
2022-10-05T16:39:52.716Z,66.13
2022-10-05T16:42:34.468Z,66.59
2022-10-05T16:45:23.083Z,66.91
2022-10-05T16:48:01.490Z,67.17
2022-10-05T16:50:37.904Z,67.56
2022-10-05T16:53:14.598Z,67.80
2022-10-05T16:55:48.058Z,67.93
2022-10-05T16:58:21.171Z,68.29
2022-10-05T17:01:05.566Z,68.29
2022-10-05T17:03:47.484Z,68.50
2022-10-05T17:06:39.995Z,68.76
2022-10-05T17:09:55.614Z,69.02
2022-10-05T17:12:44.860Z,69.44
2022-10-05T17:15:31.867Z,69.73
2022-10-05T17:18:24.165Z,69.73
2022-10-05T17:21:01.783Z,69.92
2022-10-05T17:23:43.107Z,70.17
2022-10-05T17:26:38.230Z,70.42
2022-10-05T17:29:16.416Z,70.48
2022-10-05T17:32:11.222Z,70.29
2022-10-05T17:35:00.162Z,70.29
2022-10-05T17:37:38.181Z,70.24
2022-10-05T17:40:30.656Z,70.22
2022-10-05T17:43:00.515Z,70.14
2022-10-05T17:45:53.206Z,70.11
2022-10-05T17:49:06.104Z,70.15
2022-10-05T17:52:18.977Z,70.00
2022-10-05T17:55:25.545Z,70.08
2022-10-05T17:57:57.970Z,70.21
2022-10-05T18:01:04.043Z,70.04
2022-10-05T18:03:35.623Z,70.10
2022-10-05T18:06:33.962Z,70.10
2022-10-05T18:09:37.780Z,69.98
2022-10-05T18:12:25.900Z,69.79
2022-10-05T18:14:58.994Z,69.42
2022-10-05T18:17:44.525Z,69.14
2022-10-05T18:20:34.208Z,69.10
2022-10-05T18:23:34.825Z,68.90
2022-10-05T18:26:20.264Z,68.79
2022-10-05T18:29:12.959Z,68.95
2022-10-05T18:31:49.326Z,68.73
2022-10-05T18:34:31.092Z,68.73
2022-10-05T18:37:20.601Z,68.86
2022-10-05T18:40:07.863Z,68.73
2022-10-05T18:42:47.870Z,69.27
2022-10-05T18:45:25.291Z,69.43
2022-10-05T18:48:06.500Z,69.27
2022-10-05T18:50:42.945Z,69.48
2022-10-05T18:53:24.025Z,69.47
2022-10-05T18:56:01.537Z,69.39
2022-10-05T18:58:36.615Z,69.45
2022-10-05T19:01:26.563Z,69.38
2022-10-05T19:04:05.163Z,69.50
2022-10-05T19:06:42.359Z,69.68
2022-10-05T19:09:22.398Z,69.92
2022-10-05T19:11:57.404Z,70.03
2022-10-05T19:14:34.008Z,70.07
2022-10-05T19:17:22.178Z,70.10
2022-10-05T19:20:11.106Z,70.39
2022-10-05T19:22:50.782Z,70.02
2022-10-05T19:25:36.444Z,69.97
2022-10-05T19:28:18.123Z,70.05
2022-10-05T19:30:59.109Z,70.12
2022-10-05T19:33:35.571Z,70.02
2022-10-05T19:36:21.816Z,70.24
2022-10-05T19:39:02.654Z,70.18
2022-10-05T19:41:50.009Z,70.12
2022-10-05T19:44:30.644Z,70.62
2022-10-05T19:47:02.021Z,70.87
2022-10-05T19:49:47.649Z,70.49
2022-10-05T19:52:24.354Z,70.60
2022-10-05T19:55:14.445Z,70.56
2022-10-05T19:57:50.926Z,70.63
2022-10-05T20:00:24.017Z,70.61
2022-10-05T20:02:52.134Z,70.95
2022-10-05T20:05:22.351Z,71.12
2022-10-05T20:07:50.721Z,71.16
2022-10-05T20:10:29.089Z,70.74
2022-10-05T20:13:00.530Z,70.78
2022-10-05T20:15:49.595Z,71.24
2022-10-05T20:18:57.533Z,71.62
2022-10-05T20:21:47.721Z,71.81
2022-10-05T20:24:19.838Z,71.75
2022-10-05T20:27:04.310Z,71.52
2022-10-05T20:29:36.131Z,71.75
2022-10-05T20:32:08.183Z,71.69
2022-10-05T20:34:40.437Z,72.17
2022-10-05T20:37:11.016Z,72.20
2022-10-05T20:39:40.836Z,72.07
2022-10-05T20:42:11.214Z,72.57
2022-10-05T20:44:40.037Z,72.35
2022-10-05T20:47:09.092Z,72.12
2022-10-05T20:49:40.453Z,72.46
2022-10-05T20:52:11.993Z,72.32
2022-10-05T20:54:40.931Z,72.67
2022-10-05T20:57:10.313Z,72.46
2022-10-05T20:59:38.915Z,72.45
2022-10-05T21:02:07.898Z,72.53
2022-10-05T21:04:41.300Z,72.67
2022-10-05T21:07:10.078Z,72.72
2022-10-05T21:09:40.236Z,72.81
2022-10-05T21:12:09.053Z,73.01
2022-10-05T21:14:38.360Z,72.83
2022-10-05T21:17:07.112Z,72.96
2022-10-05T21:19:38.732Z,73.02
2022-10-05T21:22:09.108Z,73.02
2022-10-05T21:24:39.592Z,72.90
2022-10-05T21:27:09.461Z,73.10
2022-10-05T21:29:40.405Z,73.34
2022-10-05T21:32:10.721Z,73.35
2022-10-05T21:34:39.467Z,73.53
2022-10-05T21:37:08.364Z,73.75
2022-10-05T21:39:36.719Z,73.96
2022-10-05T21:42:05.344Z,74.04
2022-10-05T21:44:33.571Z,73.99
2022-10-05T21:47:03.529Z,74.38
2022-10-05T21:49:31.770Z,74.41
2022-10-05T21:52:02.564Z,74.65
2022-10-05T21:54:32.990Z,74.74
2022-10-05T21:57:02.036Z,74.88
2022-10-05T21:59:33.555Z,75.06
2022-10-05T22:02:02.024Z,75.42
2022-10-05T22:04:30.422Z,75.53
2022-10-05T22:06:59.088Z,75.56
2022-10-05T22:09:27.494Z,75.66
2022-10-05T22:11:56.687Z,75.84
2022-10-05T22:14:25.399Z,75.96
2022-10-05T22:16:54.465Z,75.96
2022-10-05T22:19:22.948Z,75.94
2022-10-05T22:21:51.229Z,76.07
2022-10-05T22:24:19.450Z,76.16
2022-10-05T22:26:50.721Z,76.07
2022-10-05T22:29:19.881Z,76.28
2022-10-05T22:31:49.110Z,76.35
2022-10-05T22:34:18.146Z,76.51
2022-10-05T22:36:47.037Z,76.59
2022-10-05T22:39:16.071Z,76.76
2022-10-05T22:41:44.701Z,76.96
2022-10-05T22:44:13.156Z,77.14
2022-10-05T22:46:41.475Z,77.51
2022-10-05T22:49:09.978Z,77.37
2022-10-05T22:51:38.312Z,77.85
2022-10-05T22:54:07.160Z,78.29
2022-10-05T22:56:35.455Z,78.51
2022-10-05T22:59:03.735Z,78.38
2022-10-05T23:01:32.058Z,78.75
2022-10-05T23:04:00.835Z,79.04
2022-10-05T23:06:29.901Z,79.27
2022-10-05T23:08:58.081Z,78.82
2022-10-05T23:11:27.504Z,79.38
2022-10-05T23:13:57.956Z,79.49
2022-10-05T23:16:28.360Z,79.66
2022-10-05T23:18:57.679Z,79.13
2022-10-05T23:21:28.981Z,79.55
2022-10-05T23:23:57.211Z,79.48
2022-10-05T23:26:26.485Z,79.58
2022-10-05T23:28:54.688Z,79.58
2022-10-05T23:31:24.577Z,79.63
2022-10-05T23:33:53.367Z,79.51
2022-10-05T23:36:23.009Z,79.78
2022-10-05T23:38:51.584Z,80.56
2022-10-05T23:41:20.526Z,79.92
2022-10-05T23:43:49.116Z,80.01
2022-10-05T23:46:17.893Z,79.86
2022-10-05T23:48:46.184Z,79.81
2022-10-05T23:51:14.982Z,79.79
2022-10-05T23:53:44.148Z,80.34
2022-10-05T23:56:12.633Z,80.34
2022-10-05T23:58:41.088Z,80.06
